Hesa Airport


Codes: OIFE/IFH
Name: Hesa Airport
City: Hesa
Country: Iran
Elevation: 5256 ft.

Photos at Hesa Airport


   Photos courtesy of SpottingLog. You can add your own sightings and photos by signing up for a free trial today.



No photos found.

Weather at Hesa Airport


Time (UTC)DescriptionTempratureWindCloud coverageVisibilityPressureHumidity
17-Jun-2024 06:00Clear Sky24°C2 mph, SE0%10000m1012hPa27%
17-Jun-2024 09:00Clear Sky29°C4 mph, E0%10000m1010hPa19%
17-Jun-2024 12:00Clear Sky34°C9 mph, E6%10000m1007hPa11%
17-Jun-2024 15:00Broken Clouds32°C18 mph, NE59%10000m1008hPa17%
17-Jun-2024 18:00Light Rain29°C11 mph, N80%10000m1011hPa24%
17-Jun-2024 21:00Broken Clouds28°C7 mph, NE67%10000m1011hPa25%
18-Jun-2024 00:00Scattered Clouds26°C2 mph, W50%10000m1011hPa28%
18-Jun-2024 03:00Clear Sky27°C2 mph, W5%10000m1012hPa26%
18-Jun-2024 06:00Clear Sky30°C4 mph, SE3%10000m1012hPa18%
18-Jun-2024 09:00Clear Sky34°C4 mph, E0%10000m1009hPa13%
18-Jun-2024 12:00Few Clouds35°C7 mph, N15%10000m1007hPa11%
18-Jun-2024 15:00Light Rain24°C11 mph, SW93%10000m1015hPa40%
18-Jun-2024 18:00Overcast Clouds28°C18 mph, NE93%10000m1012hPa24%
18-Jun-2024 21:00Broken Clouds27°C0 mph, NW63%10000m1011hPa26%
19-Jun-2024 00:00Scattered Clouds25°C2 mph, W36%10000m1011hPa30%
19-Jun-2024 03:00Clear Sky26°C2 mph, NW0%10000m1012hPa27%
19-Jun-2024 06:00Clear Sky30°C4 mph, SE0%10000m1010hPa19%
19-Jun-2024 09:00Clear Sky33°C7 mph, SE0%10000m1008hPa15%
19-Jun-2024 12:00Clear Sky35°C11 mph, E4%10000m1005hPa11%
19-Jun-2024 15:00Broken Clouds32°C11 mph, E54%10000m1008hPa16%
19-Jun-2024 18:00Broken Clouds28°C13 mph, NE75%10000m1012hPa24%
19-Jun-2024 21:00Overcast Clouds27°C9 mph, NE88%10000m1012hPa24%
20-Jun-2024 00:00Broken Clouds25°C4 mph, NE63%10000m1011hPa27%
20-Jun-2024 03:00Clear Sky25°C7 mph, NE1%10000m1011hPa28%
20-Jun-2024 06:00Clear Sky29°C4 mph, E1%10000m1010hPa19%
20-Jun-2024 09:00Clear Sky32°C9 mph, NE0%10000m1007hPa16%
20-Jun-2024 12:00Clear Sky34°C13 mph, NE3%10000m1005hPa13%
20-Jun-2024 15:00Broken Clouds32°C18 mph, NE52%10000m1005hPa14%
20-Jun-2024 18:00Broken Clouds29°C13 mph, NE68%10000m1009hPa20%
20-Jun-2024 21:00Overcast Clouds28°C11 mph, NE100%10000m1009hPa22%
21-Jun-2024 00:00Broken Clouds25°C7 mph, NE81%10000m1009hPa27%
21-Jun-2024 03:00Clear Sky26°C2 mph, SE4%10000m1010hPa26%
21-Jun-2024 06:00Clear Sky29°C4 mph, SE2%10000m1009hPa20%
21-Jun-2024 09:00Clear Sky32°C2 mph, NE0%10000m1007hPa15%
21-Jun-2024 12:00Clear Sky34°C7 mph, NE0%10000m1004hPa12%
21-Jun-2024 15:00Broken Clouds32°C7 mph, N70%10000m1005hPa15%
21-Jun-2024 18:00Broken Clouds27°C9 mph, NE71%10000m1009hPa27%
21-Jun-2024 21:00Overcast Clouds24°C9 mph, NE96%10000m1010hPa37%
22-Jun-2024 00:00Broken Clouds24°C7 mph, W66%10000m1009hPa37%
22-Jun-2024 03:00Clear Sky25°C2 mph, NW3%10000m1009hPa33%